sensor_id;sensor_type;location;lat;lon;timestamp;P1;durP1;ratioP1;P2;durP2;ratioP2
70535;SDS011;58089;48.752;11.338;2024-03-25T00:01:42;4.50;;;1.03;;
70535;SDS011;58089;48.752;11.338;2024-03-25T00:04:07;4.43;;;1.03;;
70535;SDS011;58089;48.752;11.338;2024-03-25T00:06:33;4.30;;;0.83;;
70535;SDS011;58089;48.752;11.338;2024-03-25T00:09:01;4.17;;;0.90;;
70535;SDS011;58089;48.752;11.338;2024-03-25T00:11:27;4.90;;;1.00;;
70535;SDS011;58089;48.752;11.338;2024-03-25T00:13:52;5.15;;;0.90;;
70535;SDS011;58089;48.752;11.338;2024-03-25T00:16:18;3.80;;;0.70;;
70535;SDS011;58089;48.752;11.338;2024-03-25T00:18:43;5.03;;;1.17;;
70535;SDS011;58089;48.752;11.338;2024-03-25T00:21:08;4.90;;;1.13;;
70535;SDS011;58089;48.752;11.338;2024-03-25T00:23:33;6.33;;;1.30;;
70535;SDS011;58089;48.752;11.338;2024-03-25T00:25:59;4.50;;;0.97;;
70535;SDS011;58089;48.752;11.338;2024-03-25T00:28:24;4.33;;;1.00;;
70535;SDS011;58089;48.752;11.338;2024-03-25T00:30:49;5.03;;;1.00;;
70535;SDS011;58089;48.752;11.338;2024-03-25T00:33:15;5.67;;;1.20;;
70535;SDS011;58089;48.752;11.338;2024-03-25T00:35:41;4.88;;;1.27;;
70535;SDS011;58089;48.752;11.338;2024-03-25T00:38:07;6.20;;;1.13;;
70535;SDS011;58089;48.752;11.338;2024-03-25T00:40:33;6.53;;;1.03;;
70535;SDS011;58089;48.752;11.338;2024-03-25T00:42:59;5.90;;;1.30;;
70535;SDS011;58089;48.752;11.338;2024-03-25T00:45:24;4.80;;;1.20;;
70535;SDS011;58089;48.752;11.338;2024-03-25T00:47:55;5.78;;;1.10;;
70535;SDS011;58089;48.752;11.338;2024-03-25T00:50:24;4.82;;;1.02;;
70535;SDS011;58089;48.752;11.338;2024-03-25T00:52:50;5.10;;;1.20;;
70535;SDS011;58089;48.752;11.338;2024-03-25T00:55:15;5.63;;;1.50;;
70535;SDS011;58089;48.752;11.338;2024-03-25T00:57:40;6.73;;;1.40;;
70535;SDS011;58089;48.752;11.338;2024-03-25T01:00:06;6.05;;;1.25;;
70535;SDS011;58089;48.752;11.338;2024-03-25T01:02:32;6.25;;;2.22;;
70535;SDS011;58089;48.752;11.338;2024-03-25T01:04:58;8.00;;;1.40;;
70535;SDS011;58089;48.752;11.338;2024-03-25T01:07:25;7.40;;;1.20;;
70535;SDS011;58089;48.752;11.338;2024-03-25T01:09:50;5.97;;;1.00;;
70535;SDS011;58089;48.752;11.338;2024-03-25T01:12:15;4.23;;;1.10;;
70535;SDS011;58089;48.752;11.338;2024-03-25T01:14:41;4.90;;;1.23;;
70535;SDS011;58089;48.752;11.338;2024-03-25T01:17:06;4.23;;;1.30;;
70535;SDS011;58089;48.752;11.338;2024-03-25T01:19:31;4.87;;;1.00;;
70535;SDS011;58089;48.752;11.338;2024-03-25T01:21:57;6.57;;;1.37;;
70535;SDS011;58089;48.752;11.338;2024-03-25T01:24:22;6.50;;;1.43;;
70535;SDS011;58089;48.752;11.338;2024-03-25T01:26:47;4.13;;;1.33;;
70535;SDS011;58089;48.752;11.338;2024-03-25T01:29:12;4.63;;;1.60;;
70535;SDS011;58089;48.752;11.338;2024-03-25T01:31:38;6.43;;;1.27;;
70535;SDS011;58089;48.752;11.338;2024-03-25T01:34:03;5.40;;;1.30;;
70535;SDS011;58089;48.752;11.338;2024-03-25T01:36:28;5.00;;;1.30;;
70535;SDS011;58089;48.752;11.338;2024-03-25T01:38:54;4.37;;;1.30;;
70535;SDS011;58089;48.752;11.338;2024-03-25T01:41:22;7.47;;;1.47;;
70535;SDS011;58089;48.752;11.338;2024-03-25T01:43:51;7.00;;;1.52;;
70535;SDS011;58089;48.752;11.338;2024-03-25T01:46:17;5.00;;;1.30;;
70535;SDS011;58089;48.752;11.338;2024-03-25T01:48:43;5.75;;;1.10;;
70535;SDS011;58089;48.752;11.338;2024-03-25T01:51:09;5.73;;;1.17;;
70535;SDS011;58089;48.752;11.338;2024-03-25T01:53:36;5.95;;;1.10;;
70535;SDS011;58089;48.752;11.338;2024-03-25T01:56:02;5.60;;;1.37;;
70535;SDS011;58089;48.752;11.338;2024-03-25T01:58:28;5.45;;;1.30;;
70535;SDS011;58089;48.752;11.338;2024-03-25T02:00:54;4.95;;;1.13;;
70535;SDS011;58089;48.752;11.338;2024-03-25T02:03:20;5.00;;;1.30;;
70535;SDS011;58089;48.752;11.338;2024-03-25T02:05:47;5.35;;;1.08;;
70535;SDS011;58089;48.752;11.338;2024-03-25T02:08:14;4.28;;;1.17;;
70535;SDS011;58089;48.752;11.338;2024-03-25T02:10:39;5.70;;;1.07;;
70535;SDS011;58089;48.752;11.338;2024-03-25T02:13:05;5.85;;;0.88;;
70535;SDS011;58089;48.752;11.338;2024-03-25T02:15:30;4.57;;;1.10;;
70535;SDS011;58089;48.752;11.338;2024-03-25T02:17:55;3.97;;;1.00;;
70535;SDS011;58089;48.752;11.338;2024-03-25T02:20:21;6.33;;;1.47;;
70535;SDS011;58089;48.752;11.338;2024-03-25T02:22:46;4.03;;;1.07;;
70535;SDS011;58089;48.752;11.338;2024-03-25T02:25:11;4.90;;;1.10;;
70535;SDS011;58089;48.752;11.338;2024-03-25T02:27:39;4.47;;;1.10;;
70535;SDS011;58089;48.752;11.338;2024-03-25T02:30:05;5.63;;;1.00;;
70535;SDS011;58089;48.752;11.338;2024-03-25T02:32:32;5.40;;;1.10;;
70535;SDS011;58089;48.752;11.338;2024-03-25T02:34:58;5.03;;;1.08;;
70535;SDS011;58089;48.752;11.338;2024-03-25T02:37:24;5.37;;;1.13;;
70535;SDS011;58089;48.752;11.338;2024-03-25T02:39:51;5.25;;;1.05;;
70535;SDS011;58089;48.752;11.338;2024-03-25T02:42:16;5.23;;;1.13;;
70535;SDS011;58089;48.752;11.338;2024-03-25T02:44:42;4.65;;;1.00;;
70535;SDS011;58089;48.752;11.338;2024-03-25T02:47:08;5.45;;;1.00;;
70535;SDS011;58089;48.752;11.338;2024-03-25T02:49:34;4.23;;;1.50;;
70535;SDS011;58089;48.752;11.338;2024-03-25T02:51:59;4.15;;;1.10;;
70535;SDS011;58089;48.752;11.338;2024-03-25T02:54:25;5.13;;;1.10;;
70535;SDS011;58089;48.752;11.338;2024-03-25T02:56:50;5.10;;;1.10;;
70535;SDS011;58089;48.752;11.338;2024-03-25T02:59:16;4.40;;;1.33;;
70535;SDS011;58089;48.752;11.338;2024-03-25T03:01:41;5.47;;;1.10;;
70535;SDS011;58089;48.752;11.338;2024-03-25T03:04:06;5.33;;;1.43;;
70535;SDS011;58089;48.752;11.338;2024-03-25T03:06:32;5.27;;;1.10;;
70535;SDS011;58089;48.752;11.338;2024-03-25T03:08:57;6.13;;;1.30;;
70535;SDS011;58089;48.752;11.338;2024-03-25T03:11:22;5.33;;;1.10;;
70535;SDS011;58089;48.752;11.338;2024-03-25T03:13:47;5.47;;;1.30;;
70535;SDS011;58089;48.752;11.338;2024-03-25T03:16:13;5.60;;;1.17;;
70535;SDS011;58089;48.752;11.338;2024-03-25T03:18:39;5.53;;;1.10;;
70535;SDS011;58089;48.752;11.338;2024-03-25T03:21:04;6.75;;;1.48;;
70535;SDS011;58089;48.752;11.338;2024-03-25T03:23:30;6.43;;;1.30;;
70535;SDS011;58089;48.752;11.338;2024-03-25T03:25:55;5.17;;;1.60;;
70535;SDS011;58089;48.752;11.338;2024-03-25T03:28:22;7.47;;;1.60;;
70535;SDS011;58089;48.752;11.338;2024-03-25T03:30:47;5.90;;;1.20;;
70535;SDS011;58089;48.752;11.338;2024-03-25T03:33:12;5.20;;;1.17;;
70535;SDS011;58089;48.752;11.338;2024-03-25T03:35:38;6.70;;;1.67;;
70535;SDS011;58089;48.752;11.338;2024-03-25T03:38:03;4.80;;;1.27;;
70535;SDS011;58089;48.752;11.338;2024-03-25T03:40:29;5.97;;;1.50;;
70535;SDS011;58089;48.752;11.338;2024-03-25T03:42:54;6.05;;;1.27;;
70535;SDS011;58089;48.752;11.338;2024-03-25T03:45:21;8.47;;;2.00;;
70535;SDS011;58089;48.752;11.338;2024-03-25T03:47:48;6.05;;;1.40;;
70535;SDS011;58089;48.752;11.338;2024-03-25T03:50:13;8.63;;;1.47;;
70535;SDS011;58089;48.752;11.338;2024-03-25T03:52:39;5.80;;;1.30;;
70535;SDS011;58089;48.752;11.338;2024-03-25T03:55:04;5.73;;;1.53;;
70535;SDS011;58089;48.752;11.338;2024-03-25T03:57:31;5.38;;;1.55;;
70535;SDS011;58089;48.752;11.338;2024-03-25T03:59:57;7.07;;;1.75;;
70535;SDS011;58089;48.752;11.338;2024-03-25T04:02:22;5.57;;;1.63;;
70535;SDS011;58089;48.752;11.338;2024-03-25T04:04:48;7.20;;;1.30;;
70535;SDS011;58089;48.752;11.338;2024-03-25T04:07:14;5.77;;;1.53;;
70535;SDS011;58089;48.752;11.338;2024-03-25T04:09:40;7.03;;;1.43;;
70535;SDS011;58089;48.752;11.338;2024-03-25T04:12:05;5.33;;;1.57;;
70535;SDS011;58089;48.752;11.338;2024-03-25T04:14:31;5.50;;;1.50;;
70535;SDS011;58089;48.752;11.338;2024-03-25T04:16:56;6.17;;;1.93;;
70535;SDS011;58089;48.752;11.338;2024-03-25T04:19:25;7.63;;;1.83;;
70535;SDS011;58089;48.752;11.338;2024-03-25T04:21:50;6.15;;;1.48;;
70535;SDS011;58089;48.752;11.338;2024-03-25T04:24:16;5.27;;;1.70;;
70535;SDS011;58089;48.752;11.338;2024-03-25T04:26:41;6.65;;;1.73;;
70535;SDS011;58089;48.752;11.338;2024-03-25T04:29:07;5.97;;;1.80;;
70535;SDS011;58089;48.752;11.338;2024-03-25T04:31:32;4.60;;;1.50;;
70535;SDS011;58089;48.752;11.338;2024-03-25T04:33:57;6.40;;;1.50;;
70535;SDS011;58089;48.752;11.338;2024-03-25T04:36:23;5.17;;;1.63;;
70535;SDS011;58089;48.752;11.338;2024-03-25T04:38:48;6.17;;;1.50;;
70535;SDS011;58089;48.752;11.338;2024-03-25T04:41:13;9.00;;;2.00;;
70535;SDS011;58089;48.752;11.338;2024-03-25T04:43:38;10.33;;;2.37;;
70535;SDS011;58089;48.752;11.338;2024-03-25T04:46:04;4.90;;;1.27;;
70535;SDS011;58089;48.752;11.338;2024-03-25T04:48:30;7.30;;;1.63;;
70535;SDS011;58089;48.752;11.338;2024-03-25T04:50:55;8.17;;;1.80;;
70535;SDS011;58089;48.752;11.338;2024-03-25T04:53:20;4.57;;;1.00;;
70535;SDS011;58089;48.752;11.338;2024-03-25T04:55:46;7.63;;;1.97;;
70535;SDS011;58089;48.752;11.338;2024-03-25T04:58:11;7.97;;;1.50;;
70535;SDS011;58089;48.752;11.338;2024-03-25T05:00:36;7.33;;;1.70;;
70535;SDS011;58089;48.752;11.338;2024-03-25T05:03:01;4.77;;;1.80;;
70535;SDS011;58089;48.752;11.338;2024-03-25T05:05:27;7.00;;;1.53;;
70535;SDS011;58089;48.752;11.338;2024-03-25T05:07:52;5.50;;;1.57;;
70535;SDS011;58089;48.752;11.338;2024-03-25T05:10:17;4.83;;;1.60;;
70535;SDS011;58089;48.752;11.338;2024-03-25T05:12:42;7.53;;;1.97;;
70535;SDS011;58089;48.752;11.338;2024-03-25T05:15:09;7.38;;;1.83;;
70535;SDS011;58089;48.752;11.338;2024-03-25T05:17:35;6.17;;;1.60;;
70535;SDS011;58089;48.752;11.338;2024-03-25T05:20:00;7.00;;;1.58;;
70535;SDS011;58089;48.752;11.338;2024-03-25T05:22:25;6.50;;;1.47;;
70535;SDS011;58089;48.752;11.338;2024-03-25T05:24:50;6.80;;;1.70;;
70535;SDS011;58089;48.752;11.338;2024-03-25T05:27:16;8.43;;;2.03;;
70535;SDS011;58089;48.752;11.338;2024-03-25T05:29:41;5.20;;;1.60;;
70535;SDS011;58089;48.752;11.338;2024-03-25T05:32:06;5.90;;;1.60;;
70535;SDS011;58089;48.752;11.338;2024-03-25T05:34:31;6.73;;;1.60;;
70535;SDS011;58089;48.752;11.338;2024-03-25T05:36:57;7.60;;;1.70;;
70535;SDS011;58089;48.752;11.338;2024-03-25T05:39:22;8.87;;;2.20;;
70535;SDS011;58089;48.752;11.338;2024-03-25T05:41:47;5.70;;;2.00;;
70535;SDS011;58089;48.752;11.338;2024-03-25T05:44:13;5.53;;;1.80;;
70535;SDS011;58089;48.752;11.338;2024-03-25T05:46:39;9.30;;;1.90;;
70535;SDS011;58089;48.752;11.338;2024-03-25T05:49:04;6.65;;;2.05;;
70535;SDS011;58089;48.752;11.338;2024-03-25T05:51:30;7.97;;;3.10;;
70535;SDS011;58089;48.752;11.338;2024-03-25T05:53:58;4.88;;;1.38;;
70535;SDS011;58089;48.752;11.338;2024-03-25T05:56:24;6.00;;;2.20;;
70535;SDS011;58089;48.752;11.338;2024-03-25T05:58:55;5.38;;;1.80;;
70535;SDS011;58089;48.752;11.338;2024-03-25T06:01:21;7.27;;;1.93;;
70535;SDS011;58089;48.752;11.338;2024-03-25T06:03:46;7.55;;;1.88;;
70535;SDS011;58089;48.752;11.338;2024-03-25T06:06:11;5.17;;;1.70;;
70535;SDS011;58089;48.752;11.338;2024-03-25T06:08:37;7.40;;;1.90;;
70535;SDS011;58089;48.752;11.338;2024-03-25T06:11:02;7.70;;;1.83;;
70535;SDS011;58089;48.752;11.338;2024-03-25T06:13:27;7.80;;;2.23;;
70535;SDS011;58089;48.752;11.338;2024-03-25T06:15:53;6.17;;;1.97;;
70535;SDS011;58089;48.752;11.338;2024-03-25T06:18:18;7.87;;;2.20;;
70535;SDS011;58089;48.752;11.338;2024-03-25T06:20:44;6.95;;;1.90;;
70535;SDS011;58089;48.752;11.338;2024-03-25T06:23:09;5.17;;;1.70;;
70535;SDS011;58089;48.752;11.338;2024-03-25T06:25:34;10.87;;;2.03;;
70535;SDS011;58089;48.752;11.338;2024-03-25T06:28:00;5.90;;;1.58;;
70535;SDS011;58089;48.752;11.338;2024-03-25T06:30:26;6.47;;;1.90;;
70535;SDS011;58089;48.752;11.338;2024-03-25T06:33:10;6.70;;;1.70;;
70535;SDS011;58089;48.752;11.338;2024-03-25T06:35:54;5.30;;;1.80;;
70535;SDS011;58089;48.752;11.338;2024-03-25T06:38:19;6.83;;;1.80;;
70535;SDS011;58089;48.752;11.338;2024-03-25T06:40:47;4.90;;;1.80;;
70535;SDS011;58089;48.752;11.338;2024-03-25T06:43:13;9.30;;;1.90;;
70535;SDS011;58089;48.752;11.338;2024-03-25T06:45:39;5.83;;;1.93;;
70535;SDS011;58089;48.752;11.338;2024-03-25T06:48:04;7.17;;;1.70;;
70535;SDS011;58089;48.752;11.338;2024-03-25T06:50:30;7.32;;;1.83;;
70535;SDS011;58089;48.752;11.338;2024-03-25T06:52:55;6.90;;;1.93;;
70535;SDS011;58089;48.752;11.338;2024-03-25T06:55:21;6.33;;;2.13;;
70535;SDS011;58089;48.752;11.338;2024-03-25T06:57:50;5.68;;;2.20;;
70535;SDS011;58089;48.752;11.338;2024-03-25T07:00:15;5.90;;;1.97;;
70535;SDS011;58089;48.752;11.338;2024-03-25T07:02:41;5.97;;;1.90;;
70535;SDS011;58089;48.752;11.338;2024-03-25T07:05:06;8.27;;;2.63;;
70535;SDS011;58089;48.752;11.338;2024-03-25T07:07:32;6.57;;;1.90;;
70535;SDS011;58089;48.752;11.338;2024-03-25T07:09:59;5.93;;;1.80;;
70535;SDS011;58089;48.752;11.338;2024-03-25T07:12:24;6.78;;;1.95;;
70535;SDS011;58089;48.752;11.338;2024-03-25T07:14:49;6.07;;;2.17;;
70535;SDS011;58089;48.752;11.338;2024-03-25T07:17:15;8.30;;;2.23;;
70535;SDS011;58089;48.752;11.338;2024-03-25T07:19:40;6.23;;;1.67;;
70535;SDS011;58089;48.752;11.338;2024-03-25T07:22:05;7.27;;;2.33;;
70535;SDS011;58089;48.752;11.338;2024-03-25T07:24:30;5.77;;;2.20;;
70535;SDS011;58089;48.752;11.338;2024-03-25T07:26:56;6.13;;;2.73;;
70535;SDS011;58089;48.752;11.338;2024-03-25T07:29:21;6.90;;;2.10;;
70535;SDS011;58089;48.752;11.338;2024-03-25T07:31:46;6.63;;;2.57;;
70535;SDS011;58089;48.752;11.338;2024-03-25T07:34:11;7.07;;;2.10;;
70535;SDS011;58089;48.752;11.338;2024-03-25T07:36:37;8.13;;;2.30;;
70535;SDS011;58089;48.752;11.338;2024-03-25T07:39:03;7.13;;;2.30;;
70535;SDS011;58089;48.752;11.338;2024-03-25T07:41:31;6.50;;;2.63;;
70535;SDS011;58089;48.752;11.338;2024-03-25T07:43:56;7.67;;;2.40;;
70535;SDS011;58089;48.752;11.338;2024-03-25T07:46:21;6.07;;;2.70;;
70535;SDS011;58089;48.752;11.338;2024-03-25T07:48:46;6.57;;;2.33;;
70535;SDS011;58089;48.752;11.338;2024-03-25T07:51:12;6.20;;;1.97;;
70535;SDS011;58089;48.752;11.338;2024-03-25T07:53:37;10.52;;;2.58;;
70535;SDS011;58089;48.752;11.338;2024-03-25T07:56:02;10.43;;;3.10;;
70535;SDS011;58089;48.752;11.338;2024-03-25T07:58:29;6.03;;;1.92;;
70535;SDS011;58089;48.752;11.338;2024-03-25T08:00:55;5.67;;;2.00;;
70535;SDS011;58089;48.752;11.338;2024-03-25T08:03:21;6.07;;;2.13;;
70535;SDS011;58089;48.752;11.338;2024-03-25T08:05:47;6.97;;;2.00;;
70535;SDS011;58089;48.752;11.338;2024-03-25T08:08:12;8.90;;;2.53;;
70535;SDS011;58089;48.752;11.338;2024-03-25T08:10:38;8.38;;;3.65;;
70535;SDS011;58089;48.752;11.338;2024-03-25T08:13:03;5.77;;;2.07;;
70535;SDS011;58089;48.752;11.338;2024-03-25T08:15:28;5.20;;;1.93;;
70535;SDS011;58089;48.752;11.338;2024-03-25T08:17:54;6.70;;;2.40;;
70535;SDS011;58089;48.752;11.338;2024-03-25T08:20:19;8.10;;;2.33;;
70535;SDS011;58089;48.752;11.338;2024-03-25T08:22:44;8.53;;;2.47;;
70535;SDS011;58089;48.752;11.338;2024-03-25T08:25:10;7.25;;;2.30;;
70535;SDS011;58089;48.752;11.338;2024-03-25T08:27:36;7.47;;;2.97;;
70535;SDS011;58089;48.752;11.338;2024-03-25T08:30:02;6.00;;;2.42;;
70535;SDS011;58089;48.752;11.338;2024-03-25T08:32:28;6.90;;;2.40;;
70535;SDS011;58089;48.752;11.338;2024-03-25T08:34:54;6.45;;;2.60;;
70535;SDS011;58089;48.752;11.338;2024-03-25T08:37:19;6.03;;;2.30;;
70535;SDS011;58089;48.752;11.338;2024-03-25T08:39:44;7.03;;;2.40;;
70535;SDS011;58089;48.752;11.338;2024-03-25T08:42:10;8.15;;;2.88;;
70535;SDS011;58089;48.752;11.338;2024-03-25T08:44:35;7.53;;;2.50;;
70535;SDS011;58089;48.752;11.338;2024-03-25T08:47:00;8.47;;;2.57;;
70535;SDS011;58089;48.752;11.338;2024-03-25T08:49:26;8.33;;;2.80;;
70535;SDS011;58089;48.752;11.338;2024-03-25T08:51:51;7.57;;;2.50;;
70535;SDS011;58089;48.752;11.338;2024-03-25T08:54:17;7.05;;;2.55;;
70535;SDS011;58089;48.752;11.338;2024-03-25T08:56:42;7.17;;;2.27;;
70535;SDS011;58089;48.752;11.338;2024-03-25T08:59:08;6.07;;;2.50;;
70535;SDS011;58089;48.752;11.338;2024-03-25T09:01:34;7.68;;;2.95;;
70535;SDS011;58089;48.752;11.338;2024-03-25T09:04:00;18.07;;;3.50;;
70535;SDS011;58089;48.752;11.338;2024-03-25T09:06:25;6.37;;;2.40;;
70535;SDS011;58089;48.752;11.338;2024-03-25T09:08:50;7.03;;;2.60;;
70535;SDS011;58089;48.752;11.338;2024-03-25T09:11:34;10.52;;;3.70;;
70535;SDS011;58089;48.752;11.338;2024-03-25T09:14:00;8.20;;;2.60;;
70535;SDS011;58089;48.752;11.338;2024-03-25T09:16:28;8.00;;;2.93;;
70535;SDS011;58089;48.752;11.338;2024-03-25T09:18:53;7.03;;;2.33;;
70535;SDS011;58089;48.752;11.338;2024-03-25T09:21:18;7.05;;;2.42;;
70535;SDS011;58089;48.752;11.338;2024-03-25T09:23:44;5.87;;;2.77;;
70535;SDS011;58089;48.752;11.338;2024-03-25T09:26:09;8.13;;;2.77;;
70535;SDS011;58089;48.752;11.338;2024-03-25T09:28:36;7.20;;;2.63;;
70535;SDS011;58089;48.752;11.338;2024-03-25T09:31:01;6.30;;;2.57;;
70535;SDS011;58089;48.752;11.338;2024-03-25T09:33:26;7.33;;;2.50;;
70535;SDS011;58089;48.752;11.338;2024-03-25T09:35:52;6.57;;;2.33;;
70535;SDS011;58089;48.752;11.338;2024-03-25T09:38:17;6.20;;;2.60;;
70535;SDS011;58089;48.752;11.338;2024-03-25T09:40:42;6.33;;;2.50;;
70535;SDS011;58089;48.752;11.338;2024-03-25T09:43:52;7.53;;;2.47;;
70535;SDS011;58089;48.752;11.338;2024-03-25T09:45:57;7.00;;;2.65;;
70535;SDS011;58089;48.752;11.338;2024-03-25T09:48:24;6.80;;;2.75;;
70535;SDS011;58089;48.752;11.338;2024-03-25T09:50:49;7.27;;;2.70;;
70535;SDS011;58089;48.752;11.338;2024-03-25T09:53:15;6.30;;;3.17;;
70535;SDS011;58089;48.752;11.338;2024-03-25T09:55:40;6.37;;;2.67;;
70535;SDS011;58089;48.752;11.338;2024-03-25T09:58:06;7.80;;;2.97;;
70535;SDS011;58089;48.752;11.338;2024-03-25T10:00:32;7.80;;;2.28;;
70535;SDS011;58089;48.752;11.338;2024-03-25T10:02:57;8.50;;;2.57;;
70535;SDS011;58089;48.752;11.338;2024-03-25T10:05:23;5.57;;;2.10;;
70535;SDS011;58089;48.752;11.338;2024-03-25T10:07:48;6.30;;;2.43;;
70535;SDS011;58089;48.752;11.338;2024-03-25T10:10:13;5.70;;;2.17;;
70535;SDS011;58089;48.752;11.338;2024-03-25T10:12:39;6.88;;;2.10;;
70535;SDS011;58089;48.752;11.338;2024-03-25T10:15:06;7.90;;;2.60;;
70535;SDS011;58089;48.752;11.338;2024-03-25T10:17:31;7.20;;;2.77;;
70535;SDS011;58089;48.752;11.338;2024-03-25T10:19:57;6.93;;;2.23;;
70535;SDS011;58089;48.752;11.338;2024-03-25T10:22:22;5.72;;;2.22;;
70535;SDS011;58089;48.752;11.338;2024-03-25T10:24:47;6.93;;;2.30;;
70535;SDS011;58089;48.752;11.338;2024-03-25T10:27:20;8.73;;;2.70;;
70535;SDS011;58089;48.752;11.338;2024-03-25T10:29:53;6.78;;;2.85;;
70535;SDS011;58089;48.752;11.338;2024-03-25T10:32:20;5.88;;;2.20;;
70535;SDS011;58089;48.752;11.338;2024-03-25T10:34:45;6.93;;;2.30;;
70535;SDS011;58089;48.752;11.338;2024-03-25T10:37:11;6.97;;;2.23;;
70535;SDS011;58089;48.752;11.338;2024-03-25T10:39:50;5.53;;;2.35;;
70535;SDS011;58089;48.752;11.338;2024-03-25T10:42:20;7.90;;;2.22;;
70535;SDS011;58089;48.752;11.338;2024-03-25T10:44:46;5.65;;;2.00;;
70535;SDS011;58089;48.752;11.338;2024-03-25T10:47:14;7.70;;;2.50;;
70535;SDS011;58089;48.752;11.338;2024-03-25T10:49:51;7.63;;;2.10;;
70535;SDS011;58089;48.752;11.338;2024-03-25T10:52:21;7.07;;;2.67;;
70535;SDS011;58089;48.752;11.338;2024-03-25T10:54:47;5.50;;;1.47;;
70535;SDS011;58089;48.752;11.338;2024-03-25T10:57:12;4.75;;;1.30;;
70535;SDS011;58089;48.752;11.338;2024-03-25T10:59:38;5.07;;;1.52;;
70535;SDS011;58089;48.752;11.338;2024-03-25T11:02:09;5.07;;;1.30;;
70535;SDS011;58089;48.752;11.338;2024-03-25T11:04:36;5.38;;;1.52;;
70535;SDS011;58089;48.752;11.338;2024-03-25T11:07:11;4.90;;;1.58;;
70535;SDS011;58089;48.752;11.338;2024-03-25T11:09:40;6.75;;;2.00;;
70535;SDS011;58089;48.752;11.338;2024-03-25T11:12:06;7.90;;;2.43;;
70535;SDS011;58089;48.752;11.338;2024-03-25T11:14:32;6.65;;;2.35;;
70535;SDS011;58089;48.752;11.338;2024-03-25T11:16:59;7.22;;;2.03;;
70535;SDS011;58089;48.752;11.338;2024-03-25T11:19:28;5.85;;;2.38;;
70535;SDS011;58089;48.752;11.338;2024-03-25T11:21:54;6.47;;;2.53;;
70535;SDS011;58089;48.752;11.338;2024-03-25T11:24:29;6.43;;;2.47;;
70535;SDS011;58089;48.752;11.338;2024-03-25T11:26:55;5.28;;;1.88;;
70535;SDS011;58089;48.752;11.338;2024-03-25T11:29:21;4.72;;;1.55;;
70535;SDS011;58089;48.752;11.338;2024-03-25T11:31:48;4.90;;;1.63;;
70535;SDS011;58089;48.752;11.338;2024-03-25T11:34:14;4.72;;;1.73;;
70535;SDS011;58089;48.752;11.338;2024-03-25T11:36:39;6.33;;;1.70;;
70535;SDS011;58089;48.752;11.338;2024-03-25T11:39:05;7.20;;;1.70;;
70535;SDS011;58089;48.752;11.338;2024-03-25T11:41:35;5.27;;;1.70;;
70535;SDS011;58089;48.752;11.338;2024-03-25T11:44:04;5.40;;;2.08;;
70535;SDS011;58089;48.752;11.338;2024-03-25T11:46:29;5.13;;;2.10;;
70535;SDS011;58089;48.752;11.338;2024-03-25T11:48:55;6.17;;;1.80;;
70535;SDS011;58089;48.752;11.338;2024-03-25T11:51:20;6.37;;;2.00;;
70535;SDS011;58089;48.752;11.338;2024-03-25T11:53:46;6.57;;;2.23;;
70535;SDS011;58089;48.752;11.338;2024-03-25T11:56:11;4.93;;;2.17;;
70535;SDS011;58089;48.752;11.338;2024-03-25T11:58:39;6.80;;;2.10;;
70535;SDS011;58089;48.752;11.338;2024-03-25T12:01:05;6.10;;;1.90;;
70535;SDS011;58089;48.752;11.338;2024-03-25T12:03:30;5.87;;;2.00;;
70535;SDS011;58089;48.752;11.338;2024-03-25T12:05:56;6.30;;;2.20;;
70535;SDS011;58089;48.752;11.338;2024-03-25T12:08:22;6.80;;;2.00;;
70535;SDS011;58089;48.752;11.338;2024-03-25T12:10:51;6.47;;;1.97;;
70535;SDS011;58089;48.752;11.338;2024-03-25T12:13:35;6.03;;;1.85;;
70535;SDS011;58089;48.752;11.338;2024-03-25T12:16:00;6.60;;;2.20;;
70535;SDS011;58089;48.752;11.338;2024-03-25T12:18:25;5.93;;;2.13;;
70535;SDS011;58089;48.752;11.338;2024-03-25T12:20:51;5.90;;;2.00;;
70535;SDS011;58089;48.752;11.338;2024-03-25T12:23:17;5.57;;;1.80;;
70535;SDS011;58089;48.752;11.338;2024-03-25T12:25:47;5.63;;;1.85;;
70535;SDS011;58089;48.752;11.338;2024-03-25T12:28:14;5.68;;;1.58;;
70535;SDS011;58089;48.752;11.338;2024-03-25T12:30:52;5.90;;;1.67;;
70535;SDS011;58089;48.752;11.338;2024-03-25T12:33:19;4.78;;;1.60;;
70535;SDS011;58089;48.752;11.338;2024-03-25T12:35:46;5.07;;;1.80;;
70535;SDS011;58089;48.752;11.338;2024-03-25T12:38:27;6.03;;;1.95;;
70535;SDS011;58089;48.752;11.338;2024-03-25T12:40:54;6.07;;;1.83;;
70535;SDS011;58089;48.752;11.338;2024-03-25T12:43:30;6.72;;;2.30;;
70535;SDS011;58089;48.752;11.338;2024-03-25T12:45:57;6.35;;;2.33;;
70535;SDS011;58089;48.752;11.338;2024-03-25T12:48:22;4.97;;;1.87;;
70535;SDS011;58089;48.752;11.338;2024-03-25T12:50:47;5.83;;;2.10;;
70535;SDS011;58089;48.752;11.338;2024-03-25T12:53:16;8.47;;;1.90;;
70535;SDS011;58089;48.752;11.338;2024-03-25T12:55:42;6.63;;;2.20;;
70535;SDS011;58089;48.752;11.338;2024-03-25T12:58:08;5.30;;;1.90;;
70535;SDS011;58089;48.752;11.338;2024-03-25T13:00:33;4.23;;;1.80;;
70535;SDS011;58089;48.752;11.338;2024-03-25T13:02:58;5.63;;;2.00;;
70535;SDS011;58089;48.752;11.338;2024-03-25T13:05:25;4.87;;;1.97;;
70535;SDS011;58089;48.752;11.338;2024-03-25T13:07:50;14.55;;;4.10;;
70535;SDS011;58089;48.752;11.338;2024-03-25T13:10:16;8.10;;;2.67;;
70535;SDS011;58089;48.752;11.338;2024-03-25T13:12:41;7.17;;;2.60;;
70535;SDS011;58089;48.752;11.338;2024-03-25T13:15:06;5.73;;;2.00;;
70535;SDS011;58089;48.752;11.338;2024-03-25T13:17:33;10.15;;;3.47;;
70535;SDS011;58089;48.752;11.338;2024-03-25T13:19:58;13.97;;;4.43;;
70535;SDS011;58089;48.752;11.338;2024-03-25T13:22:24;6.07;;;2.37;;
70535;SDS011;58089;48.752;11.338;2024-03-25T13:24:49;7.23;;;2.63;;
70535;SDS011;58089;48.752;11.338;2024-03-25T13:27:15;6.57;;;2.20;;
70535;SDS011;58089;48.752;11.338;2024-03-25T13:29:40;6.57;;;2.57;;
70535;SDS011;58089;48.752;11.338;2024-03-25T13:32:06;9.30;;;3.10;;
70535;SDS011;58089;48.752;11.338;2024-03-25T13:34:31;7.93;;;2.53;;
70535;SDS011;58089;48.752;11.338;2024-03-25T13:36:56;8.40;;;2.50;;
70535;SDS011;58089;48.752;11.338;2024-03-25T13:39:21;10.67;;;3.30;;
70535;SDS011;58089;48.752;11.338;2024-03-25T13:41:47;8.73;;;2.40;;
70535;SDS011;58089;48.752;11.338;2024-03-25T13:44:13;5.17;;;1.70;;
70535;SDS011;58089;48.752;11.338;2024-03-25T13:46:38;7.30;;;2.55;;
70535;SDS011;58089;48.752;11.338;2024-03-25T13:49:04;8.23;;;2.53;;
70535;SDS011;58089;48.752;11.338;2024-03-25T13:51:30;9.65;;;3.00;;
70535;SDS011;58089;48.752;11.338;2024-03-25T13:53:55;5.67;;;1.70;;
70535;SDS011;58089;48.752;11.338;2024-03-25T13:56:20;5.60;;;2.00;;
70535;SDS011;58089;48.752;11.338;2024-03-25T13:58:46;4.70;;;1.80;;
70535;SDS011;58089;48.752;11.338;2024-03-25T14:01:11;6.57;;;1.87;;
70535;SDS011;58089;48.752;11.338;2024-03-25T14:03:37;8.90;;;3.23;;
70535;SDS011;58089;48.752;11.338;2024-03-25T14:06:02;7.03;;;2.23;;
70535;SDS011;58089;48.752;11.338;2024-03-25T14:08:28;5.10;;;1.60;;
70535;SDS011;58089;48.752;11.338;2024-03-25T14:10:56;5.77;;;1.80;;
70535;SDS011;58089;48.752;11.338;2024-03-25T14:13:23;5.35;;;1.33;;
70535;SDS011;58089;48.752;11.338;2024-03-25T14:15:49;6.80;;;2.90;;
70535;SDS011;58089;48.752;11.338;2024-03-25T14:18:14;6.20;;;2.17;;
70535;SDS011;58089;48.752;11.338;2024-03-25T14:20:40;8.43;;;2.77;;
70535;SDS011;58089;48.752;11.338;2024-03-25T14:23:05;6.63;;;1.67;;
70535;SDS011;58089;48.752;11.338;2024-03-25T14:25:32;4.50;;;1.20;;
70535;SDS011;58089;48.752;11.338;2024-03-25T14:27:57;3.83;;;1.10;;